Terminal Aerodrome Forecast
Issued by NWS

Home | Current Version | Previous Version | Text Only | Print | Product List | Glossary On
Versions: 1 2 3 4 5 6 7 8 9 10 11 12 13 14 15 16 17 18 19 20 21 22 23 24 25
000
FTAK31 PAFA 250315 AAA
TAFAUN
TAF AMD
PAUN 250315Z 2503/2524 19008KT P6SM SCT015 BKN020 OVC030
     FM250600 17011KT 6SM -SN BR BKN020 OVC025
     FM250900 16015KT 2SM -SN BR OVC015
     FM251300 14018G24KT 6SM -SN OVC007=

USA.gov is the U.S. government's official web portal to all federal, state and local government web resources and services.